createdAt,value
2018-08-17T00:02:15.271Z,18.70
2018-08-17T00:04:43.457Z,18.80
2018-08-17T00:07:11.997Z,18.80
2018-08-17T00:09:40.535Z,18.80
2018-08-17T00:12:09.804Z,18.70
2018-08-17T00:14:39.842Z,18.70
2018-08-17T00:17:08.147Z,18.70
2018-08-17T00:19:36.395Z,18.60
2018-08-17T00:22:04.631Z,18.50
2018-08-17T00:24:32.822Z,18.40
2018-08-17T00:27:01.028Z,18.40
2018-08-17T00:29:29.355Z,18.50
2018-08-17T00:31:59.439Z,18.60
2018-08-17T00:34:27.687Z,18.90
2018-08-17T00:36:55.915Z,19.00
2018-08-17T00:39:24.105Z,18.90
2018-08-17T00:41:52.379Z,18.80
2018-08-17T00:44:22.926Z,18.70
2018-08-17T00:46:51.152Z,18.70
2018-08-17T00:49:19.350Z,18.70
2018-08-17T00:51:47.627Z,18.60
2018-08-17T00:54:15.851Z,18.50
2018-08-17T00:56:49.535Z,18.30
2018-08-17T00:59:17.826Z,18.20
2018-08-17T01:01:46.026Z,18.10
2018-08-17T01:04:14.248Z,18.00
2018-08-17T01:06:42.423Z,17.90
2018-08-17T01:09:10.934Z,18.00
2018-08-17T01:11:39.163Z,18.00
2018-08-17T01:14:07.380Z,18.00
2018-08-17T01:16:36.405Z,17.90
2018-08-17T01:19:04.617Z,18.00
2018-08-17T01:21:32.802Z,17.90
2018-08-17T01:24:01.232Z,17.90
2018-08-17T01:26:29.441Z,18.00
2018-08-17T01:28:57.700Z,18.00
2018-08-17T01:31:25.893Z,17.90
2018-08-17T01:33:54.133Z,18.00
2018-08-17T01:36:22.314Z,18.00
2018-08-17T01:38:50.564Z,18.00
2018-08-17T01:41:18.870Z,18.00
2018-08-17T01:43:47.090Z,17.90
2018-08-17T01:46:15.324Z,18.00
2018-08-17T01:48:43.632Z,17.90
2018-08-17T01:51:11.831Z,17.90
2018-08-17T01:53:40.083Z,17.90
2018-08-17T01:56:08.291Z,17.90
2018-08-17T01:58:36.530Z,17.90
2018-08-17T02:01:04.736Z,17.80
2018-08-17T02:03:32.970Z,17.70
2018-08-17T02:06:01.260Z,17.60
2018-08-17T02:08:29.482Z,17.50
2018-08-17T02:10:57.714Z,17.50
2018-08-17T02:13:26.007Z,17.40
2018-08-17T02:15:54.414Z,17.30
2018-08-17T02:18:22.606Z,17.30
2018-08-17T02:20:50.867Z,17.30
2018-08-17T02:23:19.045Z,17.30
2018-08-17T02:25:47.247Z,17.40
2018-08-17T02:28:15.443Z,17.40
2018-08-17T02:30:43.648Z,17.40
2018-08-17T02:33:11.870Z,17.40
2018-08-17T02:35:40.071Z,17.30
2018-08-17T02:38:08.365Z,17.30
2018-08-17T02:40:36.559Z,17.30
2018-08-17T02:43:04.826Z,17.20
2018-08-17T02:45:33.179Z,17.20
2018-08-17T02:48:01.411Z,17.10
2018-08-17T02:50:29.588Z,17.00
2018-08-17T02:52:57.795Z,16.90
2018-08-17T02:55:26.016Z,16.90
2018-08-17T02:57:54.246Z,16.90
2018-08-17T03:00:22.487Z,16.90
2018-08-17T03:02:50.688Z,16.90
2018-08-17T03:05:18.907Z,16.90
2018-08-17T03:07:47.134Z,16.90
2018-08-17T03:10:15.383Z,16.90
2018-08-17T03:12:43.598Z,16.90
2018-08-17T03:15:11.803Z,16.80
2018-08-17T03:20:14.626Z,16.70
2018-08-17T03:22:42.935Z,16.60
2018-08-17T03:25:11.159Z,16.50
2018-08-17T03:27:39.384Z,16.50
2018-08-17T03:30:07.572Z,16.50
2018-08-17T03:32:35.815Z,16.50
2018-08-17T03:35:04.492Z,16.60
2018-08-17T03:37:33.123Z,16.50
2018-08-17T03:40:01.390Z,16.60
2018-08-17T03:42:29.584Z,16.60
2018-08-17T03:44:57.803Z,16.60
2018-08-17T03:47:26.067Z,16.60
2018-08-17T03:49:54.257Z,16.60
2018-08-17T03:52:22.518Z,16.60
2018-08-17T03:54:50.720Z,16.60
2018-08-17T03:57:19.095Z,16.70
2018-08-17T03:59:47.380Z,16.70
2018-08-17T04:02:15.575Z,16.80
2018-08-17T04:04:43.798Z,16.90
2018-08-17T04:07:12.019Z,17.00
2018-08-17T04:09:40.219Z,17.20
2018-08-17T04:12:08.471Z,17.30
2018-08-17T04:14:36.687Z,17.40
2018-08-17T04:17:04.931Z,17.60
2018-08-17T04:19:33.105Z,17.80
2018-08-17T04:22:01.317Z,17.90
2018-08-17T04:24:29.503Z,18.10
2018-08-17T04:26:57.741Z,18.30
2018-08-17T04:29:25.934Z,18.40
2018-08-17T04:31:54.131Z,18.60
2018-08-17T04:34:22.427Z,18.60
2018-08-17T04:36:50.629Z,18.70
2018-08-17T04:39:18.812Z,18.80
2018-08-17T04:41:47.012Z,18.90
2018-08-17T04:44:15.348Z,19.00
2018-08-17T04:46:43.578Z,19.10
2018-08-17T04:49:11.802Z,19.30
2018-08-17T04:51:40.022Z,19.30
2018-08-17T04:54:08.242Z,19.30
2018-08-17T04:56:36.515Z,19.30
2018-08-17T04:59:04.748Z,19.30
2018-08-17T05:01:32.958Z,19.30
2018-08-17T05:04:01.184Z,19.20
2018-08-17T05:06:29.386Z,19.10
2018-08-17T05:08:57.619Z,19.00
2018-08-17T05:11:25.851Z,18.90
2018-08-17T05:13:54.065Z,18.80
2018-08-17T05:16:22.267Z,18.80
2018-08-17T05:18:50.534Z,18.70
2018-08-17T05:21:18.720Z,18.70
2018-08-17T05:23:46.927Z,18.70
2018-08-17T05:26:15.143Z,18.50
2018-08-17T05:28:43.384Z,18.40
2018-08-17T05:31:11.627Z,18.40
2018-08-17T05:33:39.866Z,18.50
2018-08-17T05:36:08.106Z,18.50
2018-08-17T05:38:36.326Z,18.60
2018-08-17T05:41:04.543Z,18.70
2018-08-17T05:43:32.769Z,18.70
2018-08-17T05:46:00.940Z,18.80
2018-08-17T05:48:29.146Z,18.80
2018-08-17T05:50:57.366Z,18.70
2018-08-17T05:53:25.549Z,18.70
2018-08-17T05:55:53.777Z,18.70
2018-08-17T05:58:21.989Z,18.60
2018-08-17T06:00:50.204Z,18.60
2018-08-17T06:03:18.467Z,18.60
2018-08-17T06:05:46.686Z,18.60
2018-08-17T06:08:14.925Z,18.60
2018-08-17T06:10:43.124Z,18.50
2018-08-17T06:13:11.394Z,18.50
2018-08-17T06:15:39.707Z,18.50
2018-08-17T06:18:08.067Z,18.50
2018-08-17T06:20:36.319Z,18.50
2018-08-17T06:23:04.626Z,18.60
2018-08-17T06:25:32.830Z,18.70
2018-08-17T06:28:01.063Z,18.70
2018-08-17T06:30:29.283Z,18.70
2018-08-17T06:32:57.519Z,18.80
2018-08-17T06:35:25.724Z,18.90
2018-08-17T06:37:53.996Z,19.00
2018-08-17T06:40:22.205Z,19.10
2018-08-17T06:42:50.443Z,19.30
2018-08-17T06:45:18.622Z,19.30
2018-08-17T06:47:46.858Z,19.30
2018-08-17T06:50:15.087Z,19.20
2018-08-17T06:52:43.467Z,19.20
2018-08-17T06:55:12.448Z,19.20
2018-08-17T06:57:40.886Z,19.30
2018-08-17T07:00:13.783Z,19.40
2018-08-17T07:02:43.042Z,19.50
2018-08-17T07:05:11.191Z,19.50
2018-08-17T07:07:39.735Z,19.70
2018-08-17T07:10:09.467Z,20.00
2018-08-17T07:12:38.380Z,20.20
2018-08-17T07:15:06.815Z,20.10
2018-08-17T07:17:35.335Z,20.20
2018-08-17T07:20:05.029Z,20.10
2018-08-17T07:22:36.081Z,20.00
2018-08-17T07:25:04.527Z,20.00
2018-08-17T07:27:32.810Z,20.10
2018-08-17T07:30:01.185Z,20.20
2018-08-17T07:32:30.047Z,20.40
2018-08-17T07:34:58.237Z,20.60
2018-08-17T07:37:26.508Z,20.70
2018-08-17T07:39:54.760Z,20.80
2018-08-17T07:42:23.003Z,20.70
2018-08-17T07:44:51.181Z,20.70
2018-08-17T07:47:19.641Z,20.80
2018-08-17T07:49:48.443Z,20.80
2018-08-17T07:52:16.666Z,20.80
2018-08-17T07:54:44.867Z,20.80
2018-08-17T07:57:13.044Z,20.80
2018-08-17T07:59:41.307Z,20.70
2018-08-17T08:02:10.292Z,20.70
2018-08-17T08:04:38.560Z,20.60
2018-08-17T08:07:07.915Z,20.60
2018-08-17T08:09:36.327Z,20.70
2018-08-17T08:12:05.051Z,20.80
2018-08-17T08:14:33.247Z,20.70
2018-08-17T08:17:01.423Z,20.50
2018-08-17T08:19:29.670Z,20.20
2018-08-17T08:21:57.883Z,20.20
2018-08-17T08:24:26.075Z,20.20
2018-08-17T08:26:54.338Z,20.10
2018-08-17T08:29:22.512Z,20.00
2018-08-17T08:31:50.706Z,20.10
2018-08-17T08:34:18.933Z,20.10
2018-08-17T08:36:47.131Z,20.10
2018-08-17T08:39:15.395Z,20.00
2018-08-17T08:41:43.608Z,19.90
2018-08-17T08:44:11.802Z,19.90
2018-08-17T08:46:40.004Z,19.80
2018-08-17T08:49:08.235Z,19.90
2018-08-17T08:51:36.435Z,20.00
2018-08-17T08:54:05.363Z,20.00
2018-08-17T08:56:33.715Z,20.00
2018-08-17T08:59:01.936Z,19.90
2018-08-17T09:01:30.194Z,19.90
2018-08-17T09:03:58.369Z,19.80
2018-08-17T09:06:26.565Z,19.60
2018-08-17T09:08:54.821Z,19.50
2018-08-17T09:11:23.054Z,19.30
2018-08-17T09:13:51.271Z,19.10
2018-08-17T09:16:19.592Z,19.00
2018-08-17T09:18:47.816Z,18.90
2018-08-17T09:21:16.019Z,18.80
2018-08-17T09:23:44.219Z,18.70
2018-08-17T09:26:12.446Z,18.70
2018-08-17T09:28:40.702Z,18.70
2018-08-17T09:31:09.028Z,18.70
2018-08-17T09:33:37.607Z,18.80
2018-08-17T09:36:05.806Z,18.90
2018-08-17T09:38:34.069Z,19.00
2018-08-17T09:41:02.396Z,19.00
2018-08-17T09:43:30.584Z,19.10
2018-08-17T09:45:58.831Z,19.20
2018-08-17T09:48:27.043Z,19.30
2018-08-17T09:51:07.944Z,19.40
2018-08-17T09:53:36.162Z,19.20
2018-08-17T09:56:04.362Z,19.20
2018-08-17T09:58:32.563Z,19.20
2018-08-17T10:01:06.243Z,19.30
2018-08-17T10:03:40.093Z,19.40
2018-08-17T10:06:13.600Z,19.70
2018-08-17T10:11:34.614Z,20.20
2018-08-17T10:14:02.815Z,20.30
2018-08-17T10:16:30.986Z,20.50
2018-08-17T10:18:59.255Z,20.50
2018-08-17T10:21:27.764Z,20.50
2018-08-17T10:23:55.653Z,20.60
2018-08-17T10:26:23.910Z,20.60
2018-08-17T10:28:52.083Z,20.50
2018-08-17T10:31:20.363Z,20.60
2018-08-17T10:33:48.794Z,20.80
2018-08-17T10:39:10.091Z,20.90
2018-08-17T10:41:39.051Z,20.80
2018-08-17T10:44:08.489Z,20.80
2018-08-17T10:46:37.841Z,20.90
2018-08-17T10:49:06.876Z,21.00
2018-08-17T10:51:35.156Z,21.20
2018-08-17T10:54:03.946Z,21.80
2018-08-17T10:56:32.154Z,22.30
2018-08-17T10:59:00.848Z,23.00
2018-08-17T11:01:29.195Z,23.30
2018-08-17T11:03:57.382Z,23.10
2018-08-17T11:06:25.590Z,23.10
2018-08-17T11:08:53.862Z,23.20
2018-08-17T11:11:22.111Z,23.10
2018-08-17T11:13:50.392Z,23.20
2018-08-17T11:16:18.573Z,23.00
2018-08-17T11:18:46.755Z,23.40
2018-08-17T11:21:15.034Z,23.70
2018-08-17T11:23:43.397Z,24.10
2018-08-17T11:26:12.921Z,23.90
2018-08-17T11:28:41.134Z,24.10
2018-08-17T11:31:09.423Z,24.00
2018-08-17T11:33:37.730Z,24.00
2018-08-17T11:36:06.614Z,23.80
2018-08-17T11:38:35.159Z,23.80
2018-08-17T11:41:03.335Z,23.60
2018-08-17T11:43:31.510Z,23.60
2018-08-17T11:45:59.718Z,23.80
2018-08-17T11:48:33.495Z,24.00
2018-08-17T11:51:01.755Z,24.00
2018-08-17T11:53:30.264Z,24.10
2018-08-17T11:55:59.071Z,24.10
2018-08-17T11:58:27.319Z,24.10
2018-08-17T12:00:55.577Z,24.00
2018-08-17T12:03:24.759Z,23.90
2018-08-17T12:05:53.140Z,23.80
2018-08-17T12:08:21.974Z,23.70
2018-08-17T12:10:56.440Z,23.30
2018-08-17T12:13:24.727Z,23.10
2018-08-17T12:15:57.214Z,23.10
2018-08-17T12:18:26.299Z,23.10
2018-08-17T12:20:55.207Z,23.10
2018-08-17T12:23:24.355Z,23.10
2018-08-17T12:25:57.734Z,23.10
2018-08-17T12:28:27.266Z,23.10
2018-08-17T12:30:56.186Z,22.90
2018-08-17T12:33:24.410Z,22.80
2018-08-17T12:35:52.715Z,22.70
2018-08-17T12:38:20.988Z,22.50
2018-08-17T12:40:51.663Z,22.50
2018-08-17T12:43:24.103Z,22.60
2018-08-17T12:45:52.387Z,22.60
2018-08-17T12:48:20.822Z,22.50
2018-08-17T12:50:49.098Z,22.60
2018-08-17T12:53:17.969Z,22.60
2018-08-17T12:55:47.004Z,22.60
2018-08-17T12:58:15.451Z,22.60
2018-08-17T13:00:43.845Z,22.60
2018-08-17T13:03:12.205Z,22.70
2018-08-17T13:05:40.435Z,22.50
2018-08-17T13:08:08.977Z,22.40
2018-08-17T13:10:37.626Z,22.40
2018-08-17T13:13:05.839Z,22.30
2018-08-17T13:15:35.411Z,22.20
2018-08-17T13:18:17.777Z,22.20
2018-08-17T13:20:46.092Z,22.20
2018-08-17T13:23:14.464Z,22.20
2018-08-17T13:25:43.045Z,22.20
2018-08-17T13:28:12.396Z,22.30
2018-08-17T13:30:40.626Z,22.40
2018-08-17T13:33:09.018Z,22.50
2018-08-17T13:35:37.194Z,22.60
2018-08-17T13:38:06.001Z,22.70
2018-08-17T13:40:34.474Z,22.80
2018-08-17T13:43:02.727Z,22.70
2018-08-17T13:45:31.813Z,22.70
2018-08-17T13:48:00.435Z,22.70
2018-08-17T13:50:28.771Z,22.80
2018-08-17T13:52:57.043Z,22.70
2018-08-17T13:55:25.251Z,22.60
2018-08-17T13:57:53.822Z,22.60
2018-08-17T14:00:22.071Z,22.50
2018-08-17T14:02:50.373Z,22.60
2018-08-17T14:05:18.600Z,22.60
2018-08-17T14:07:47.535Z,22.80
2018-08-17T14:10:16.443Z,22.90
2018-08-17T14:12:44.798Z,23.00
2018-08-17T14:15:13.111Z,23.10
2018-08-17T14:17:41.430Z,23.20
2018-08-17T14:20:14.866Z,23.30
2018-08-17T14:22:43.272Z,23.40
2018-08-17T14:25:11.874Z,23.50
2018-08-17T14:27:40.164Z,23.60
2018-08-17T14:30:13.206Z,23.70
2018-08-17T14:32:41.818Z,23.70
2018-08-17T14:35:10.329Z,23.80
2018-08-17T14:37:38.610Z,23.80
2018-08-17T14:40:07.803Z,23.80
2018-08-17T14:42:36.040Z,23.90
2018-08-17T14:45:05.660Z,23.80
2018-08-17T14:47:34.399Z,23.80
2018-08-17T14:50:03.701Z,23.80
2018-08-17T14:52:33.130Z,23.70
2018-08-17T14:55:01.541Z,23.70
2018-08-17T14:57:29.763Z,23.60
2018-08-17T14:59:57.965Z,23.50
2018-08-17T15:02:26.143Z,23.50
2018-08-17T15:04:54.526Z,23.50
2018-08-17T15:07:22.854Z,23.50
2018-08-17T15:09:51.147Z,23.40
2018-08-17T15:12:19.383Z,23.50
2018-08-17T15:14:47.626Z,23.50
2018-08-17T15:17:15.827Z,23.60
2018-08-17T15:19:44.242Z,23.60
2018-08-17T15:22:13.200Z,23.50
2018-08-17T15:24:41.679Z,23.50
2018-08-17T15:27:10.115Z,23.40
2018-08-17T15:29:38.452Z,23.30
2018-08-17T15:32:06.672Z,23.10
2018-08-17T15:34:34.899Z,23.10
2018-08-17T15:37:03.288Z,23.10
2018-08-17T15:39:31.522Z,23.10
2018-08-17T15:41:59.869Z,23.10
2018-08-17T15:44:28.166Z,23.20
2018-08-17T15:46:57.539Z,23.10
2018-08-17T15:49:30.958Z,23.10
2018-08-17T15:51:59.954Z,23.20
2018-08-17T15:54:28.281Z,23.20
2018-08-17T15:56:56.571Z,23.20
2018-08-17T15:59:24.824Z,23.10
2018-08-17T16:01:53.268Z,23.10
2018-08-17T16:04:21.725Z,23.20
2018-08-17T16:06:50.118Z,23.10
2018-08-17T16:09:18.727Z,23.10
2018-08-17T16:11:46.991Z,23.10
2018-08-17T16:14:15.179Z,23.10
2018-08-17T16:16:43.467Z,23.10
2018-08-17T16:19:11.635Z,23.10
2018-08-17T16:21:39.811Z,23.10
2018-08-17T16:24:08.027Z,23.10
2018-08-17T16:26:36.202Z,23.10
2018-08-17T16:29:04.977Z,23.00
2018-08-17T16:31:37.338Z,23.10
2018-08-17T16:34:05.802Z,23.10
2018-08-17T16:36:36.126Z,23.10
2018-08-17T16:39:07.972Z,23.10
2018-08-17T16:41:36.180Z,23.10
2018-08-17T16:44:04.379Z,23.10
2018-08-17T16:46:32.742Z,23.10
2018-08-17T16:49:01.090Z,23.10
2018-08-17T16:51:29.153Z,23.10
2018-08-17T16:53:57.355Z,23.10
2018-08-17T16:56:25.554Z,23.00
2018-08-17T16:58:53.856Z,23.00
2018-08-17T17:01:22.084Z,22.90
2018-08-17T17:03:50.307Z,22.90
2018-08-17T17:06:18.529Z,22.90
2018-08-17T17:08:46.768Z,22.90
2018-08-17T17:11:15.005Z,22.90
2018-08-17T17:13:44.263Z,22.90
2018-08-17T17:16:12.607Z,23.00
2018-08-17T17:18:40.859Z,23.00
2018-08-17T17:21:09.230Z,23.00
2018-08-17T17:23:52.126Z,22.90
2018-08-17T17:26:20.430Z,23.00
2018-08-17T17:28:49.219Z,23.10
2018-08-17T17:31:17.803Z,23.00
2018-08-17T17:33:46.030Z,23.00
2018-08-17T17:36:14.242Z,23.00
2018-08-17T17:38:42.444Z,23.00
2018-08-17T17:41:10.623Z,22.90
2018-08-17T17:43:38.858Z,22.90
2018-08-17T17:46:07.098Z,22.80
2018-08-17T17:48:35.271Z,22.80
2018-08-17T17:51:03.484Z,22.70
2018-08-17T17:53:31.696Z,22.70
2018-08-17T17:55:59.877Z,22.60
2018-08-17T17:58:28.092Z,22.60
2018-08-17T18:01:01.905Z,22.50
2018-08-17T18:03:31.336Z,22.40
2018-08-17T18:06:01.419Z,22.40
2018-08-17T18:08:30.865Z,22.30
2018-08-17T18:10:59.243Z,22.20
2018-08-17T18:13:28.134Z,22.20
2018-08-17T18:15:56.356Z,22.20
2018-08-17T18:18:24.616Z,22.10
2018-08-17T18:20:53.135Z,22.10
2018-08-17T18:23:21.496Z,22.10
2018-08-17T18:25:49.762Z,22.10
2018-08-17T18:28:17.994Z,22.10
2018-08-17T18:30:47.580Z,22.00
2018-08-17T18:33:15.735Z,22.00
2018-08-17T18:35:43.981Z,21.90
2018-08-17T18:38:13.477Z,21.90
2018-08-17T18:40:41.695Z,21.90
2018-08-17T18:43:09.918Z,21.80
2018-08-17T18:45:38.215Z,21.80
2018-08-17T18:48:06.423Z,21.70
2018-08-17T18:50:34.619Z,21.70
2018-08-17T18:53:02.876Z,21.60
2018-08-17T18:55:31.302Z,21.50
2018-08-17T18:58:00.047Z,21.50
2018-08-17T19:00:28.469Z,21.50
2018-08-17T19:02:56.731Z,21.40
2018-08-17T19:05:24.974Z,21.40
2018-08-17T19:07:53.227Z,21.40
2018-08-17T19:10:22.250Z,21.40
2018-08-17T19:12:50.448Z,21.40
2018-08-17T19:15:18.798Z,21.40
2018-08-17T19:17:47.469Z,21.40
2018-08-17T19:20:17.635Z,21.40
2018-08-17T19:22:47.045Z,21.30
2018-08-17T19:25:16.748Z,21.30
2018-08-17T19:27:46.099Z,21.20
2018-08-17T19:30:21.029Z,21.20
2018-08-17T19:32:49.777Z,21.10
2018-08-17T19:35:18.876Z,21.10
2018-08-17T19:37:47.159Z,21.10
2018-08-17T19:40:15.778Z,21.00
2018-08-17T19:42:44.302Z,21.00
2018-08-17T19:45:13.490Z,20.90
2018-08-17T19:47:42.937Z,20.90
2018-08-17T19:50:11.661Z,20.70
2018-08-17T19:52:41.535Z,20.60
2018-08-17T19:55:10.314Z,20.50
2018-08-17T19:57:39.367Z,20.40
2018-08-17T20:00:09.955Z,20.40
2018-08-17T20:02:39.748Z,20.40
2018-08-17T20:05:09.030Z,20.30
2018-08-17T20:07:37.956Z,20.30
2018-08-17T20:10:06.707Z,20.30
2018-08-17T20:12:35.490Z,20.20
2018-08-17T20:26:30.915Z,20.10
2018-08-17T20:28:58.801Z,20.00
2018-08-17T20:31:27.149Z,19.90
2018-08-17T20:34:02.033Z,19.80
2018-08-17T20:36:30.255Z,19.80
2018-08-17T20:38:58.647Z,19.70
2018-08-17T20:41:26.838Z,19.60
2018-08-17T20:43:55.073Z,19.50
2018-08-17T20:46:23.336Z,19.40
2018-08-17T20:48:51.856Z,19.20
2018-08-17T20:51:25.256Z,19.20
2018-08-17T20:53:58.027Z,19.10
2018-08-17T20:56:26.861Z,19.00
2018-08-17T20:58:55.413Z,18.90
2018-08-17T21:01:24.639Z,18.80
2018-08-17T21:03:54.113Z,18.70
2018-08-17T21:06:22.380Z,18.70
2018-08-17T21:08:51.191Z,18.60
2018-08-17T21:11:20.121Z,18.50
2018-08-17T21:13:48.954Z,18.50
2018-08-17T21:16:17.258Z,18.30
2018-08-17T21:18:45.549Z,18.30
2018-08-17T21:21:13.847Z,18.20
2018-08-17T21:23:42.120Z,18.10
2018-08-17T21:26:10.290Z,18.10
2018-08-17T21:28:38.672Z,18.00
2018-08-17T21:31:07.083Z,18.00
2018-08-17T21:33:36.271Z,17.90
2018-08-17T21:36:04.655Z,17.90
2018-08-17T21:38:32.906Z,17.80
2018-08-17T21:41:01.940Z,17.70
2018-08-17T21:43:30.155Z,17.60
2018-08-17T21:46:03.594Z,17.50
2018-08-17T21:48:32.428Z,17.40
2018-08-17T21:51:01.061Z,17.30
2018-08-17T21:53:32.579Z,17.20
2018-08-17T21:56:01.604Z,17.10
2018-08-17T21:58:30.008Z,17.10
2018-08-17T22:00:59.518Z,17.10
2018-08-17T22:03:32.410Z,16.90
2018-08-17T22:06:00.766Z,16.80
2018-08-17T22:08:29.011Z,16.70
2018-08-17T22:10:57.621Z,16.70
2018-08-17T22:13:35.074Z,16.70
2018-08-17T22:16:03.742Z,16.60
2018-08-17T22:18:32.965Z,16.60
2018-08-17T22:21:01.131Z,16.50
2018-08-17T22:23:30.215Z,16.40
2018-08-17T22:25:59.661Z,16.40
2018-08-17T22:28:27.842Z,16.50
2018-08-17T22:30:56.784Z,16.50
2018-08-17T22:33:24.985Z,16.50
2018-08-17T22:35:55.461Z,16.50
2018-08-17T22:38:24.564Z,16.50
2018-08-17T22:40:52.999Z,16.50
2018-08-17T22:43:21.274Z,16.40
2018-08-17T22:45:49.856Z,16.40
2018-08-17T22:48:18.239Z,16.40
2018-08-17T22:50:46.404Z,16.30
2018-08-17T22:53:14.977Z,16.20
2018-08-17T22:55:43.198Z,16.20
2018-08-17T22:58:11.784Z,16.20
2018-08-17T23:00:40.005Z,16.10
2018-08-17T23:03:09.922Z,16.10
2018-08-17T23:05:38.669Z,16.00
2018-08-17T23:08:06.895Z,15.90
2018-08-17T23:10:36.521Z,15.90
2018-08-17T23:13:05.922Z,15.80
2018-08-17T23:15:34.224Z,15.80
2018-08-17T23:18:06.064Z,15.80
2018-08-17T23:20:37.786Z,15.80
2018-08-17T23:23:09.151Z,15.80
2018-08-17T23:25:37.856Z,15.80
2018-08-17T23:28:08.133Z,15.70
2018-08-17T23:30:36.380Z,15.60
2018-08-17T23:33:06.150Z,15.60
2018-08-17T23:35:34.439Z,15.60
2018-08-17T23:38:02.743Z,15.60
2018-08-17T23:40:32.599Z,15.60
2018-08-17T23:43:00.887Z,15.60
2018-08-17T23:45:31.933Z,15.60
2018-08-17T23:48:03.201Z,15.60
2018-08-17T23:50:33.560Z,15.60
2018-08-17T23:53:02.693Z,15.60
2018-08-17T23:55:32.158Z,15.60
2018-08-17T23:58:01.086Z,15.60
